Time;durP1;ratioP1;P1;durP2;ratioP2;P2;SDS_P1;SDS_P2;PMS_P1;PMS_P2;Temp;Humidity;BMP_temperature;BMP_pressure;BME280_temperature;BME280_humidity;BME280_pressure;Samples;Min_cycle;Max_cycle;Signal;HPM_P1;HPM_P2
2021/11/07 00:03:16;;;;;;;;;;;;;;;8.94;100.00;101636.25;5051412;28;19925;-51
2021/11/07 00:05:54;;;;;;;;;;;;;;;8.95;100.00;101644.97;5033798;28;19929;-48
2021/11/07 00:09:13;;;;;;;;;;;;;;;8.90;100.00;101639.09;5033356;28;20462;-50
2021/11/07 00:11:34;;;;;;;;;;;;;;;8.98;100.00;101636.97;5033375;28;19932;-50
2021/11/07 00:14:00;;;;;;;;;;;;;;;8.86;100.00;101634.88;5036041;28;20272;-52
2021/11/07 00:16:30;;;;;;;;;;;;;;;8.84;100.00;101628.88;5047685;28;19929;-50
2021/11/07 00:21:31;;;;;;;;;;;;;;;8.91;100.00;101627.66;5036027;28;19926;-51
2021/11/07 00:24:08;;;;;;;;;;;;;;;8.91;100.00;101620.63;5036274;28;19948;-53
2021/11/07 00:29:47;;;;;;;;;;;;;;;8.93;100.00;101616.19;5036222;28;19929;-50
2021/11/07 00:35:04;;;;;;;;;;;;;;;8.79;100.00;101610.72;5036156;28;19935;-50
2021/11/07 00:37:34;;;;;;;;;;;;;;;8.79;100.00;101605.47;5048079;28;19925;-52
2021/11/07 00:41:16;;;;;;;;;;;;;;;8.75;100.00;101598.66;5035706;28;19971;-53
2021/11/07 00:51:05;;;;;;;;;;;;;;;8.84;100.00;101597.41;5033795;28;19932;-51
2021/11/07 00:58:42;;;;;;;;;;;;;;;8.81;100.00;101585.28;5032148;28;20366;-53
2021/11/07 01:01:18;;;;;;;;;;;;;;;8.83;100.00;101585.19;5034149;28;19929;-52
2021/11/07 01:03:45;;;;;;;;;;;;;;;8.88;100.00;101585.84;5035282;28;19932;-50
2021/11/07 01:06:12;;;;;;;;;;;;;;;8.89;100.00;101584.91;5034058;28;20004;-53
2021/11/07 01:08:39;;;;;;;;;;;;;;;8.93;100.00;101591.72;5035292;28;19933;-46
2021/11/07 01:11:05;;;;;;;;;;;;;;;8.90;100.00;101586.63;5035341;28;19925;-48
2021/11/07 01:13:32;;;;;;;;;;;;;;;8.95;100.00;101584.63;5035319;28;19979;-47
2021/11/07 01:15:59;;;;;;;;;;;;;;;8.90;100.00;101576.13;5035372;28;19965;-47
2021/11/07 01:18:25;;;;;;;;;;;;;;;9.01;100.00;101570.38;5032313;28;19929;-45
2021/11/07 01:20:52;;;;;;;;;;;;;;;9.00;100.00;101566.03;5032174;28;19940;-47
2021/11/07 01:25:49;;;;;;;;;;;;;;;8.92;100.00;101535.78;5033553;28;19948;-47
2021/11/07 01:28:17;;;;;;;;;;;;;;;8.95;100.00;101543.50;5046856;28;20193;-47
2021/11/07 01:30:49;;;;;;;;;;;;;;;9.00;100.00;101550.31;5034543;28;19960;-47
2021/11/07 01:33:25;;;;;;;;;;;;;;;9.05;100.00;101549.19;5031172;28;19925;-46
2021/11/07 01:39:08;;;;;;;;;;;;;;;9.08;100.00;101537.66;5012817;28;19975;-53
2021/11/07 01:44:20;;;;;;;;;;;;;;;9.14;100.00;101519.84;5026818;28;19925;-47
2021/11/07 01:46:51;;;;;;;;;;;;;;;9.09;100.00;101513.13;5034599;28;19929;-52
2021/11/07 01:49:22;;;;;;;;;;;;;;;9.05;100.00;101504.56;5034520;28;19929;-49
2021/11/07 01:51:52;;;;;;;;;;;;;;;9.10;100.00;101499.94;5034482;28;19926;-49
2021/11/07 01:54:24;;;;;;;;;;;;;;;9.08;100.00;101501.78;5034379;28;19932;-50
2021/11/07 01:56:51;;;;;;;;;;;;;;;9.14;100.00;101495.41;5032380;28;19925;-51
2021/11/07 01:59:18;;;;;;;;;;;;;;;9.09;100.00;101489.50;5031318;28;19987;-49
2021/11/07 02:01:50;;;;;;;;;;;;;;;9.21;100.00;101488.06;5032085;28;19932;-50
2021/11/07 02:04:16;;;;;;;;;;;;;;;9.19;100.00;101482.91;5034248;28;19929;-52
2021/11/07 02:06:43;;;;;;;;;;;;;;;9.17;100.00;101473.41;5034153;28;19979;-50
2021/11/07 02:09:10;;;;;;;;;;;;;;;9.14;100.00;101488.38;5048685;28;20375;-50
2021/11/07 02:11:36;;;;;;;;;;;;;;;9.17;100.00;101490.00;5032812;28;19932;-48
2021/11/07 02:14:03;;;;;;;;;;;;;;;9.16;100.00;101487.44;5029776;28;19932;-53
2021/11/07 02:16:30;;;;;;;;;;;;;;;9.17;100.00;101478.66;5048303;28;20446;-52
2021/11/07 02:18:56;;;;;;;;;;;;;;;9.19;100.00;101480.28;5033920;28;19929;-53
2021/11/07 02:21:23;;;;;;;;;;;;;;;9.16;100.00;101483.03;5033862;28;19975;-52
2021/11/07 02:23:50;;;;;;;;;;;;;;;9.22;100.00;101472.25;5049188;28;19933;-53
2021/11/07 02:26:16;;;;;;;;;;;;;;;9.19;100.00;101461.03;5049163;28;19929;-53
2021/11/07 02:28:44;;;;;;;;;;;;;;;9.22;100.00;101466.16;5032097;28;19984;-55
2021/11/07 02:31:14;;;;;;;;;;;;;;;9.26;100.00;101462.47;5029607;28;19929;-51
2021/11/07 02:33:40;;;;;;;;;;;;;;;9.20;100.00;101452.25;5031874;28;19935;-45
2021/11/07 02:36:08;;;;;;;;;;;;;;;9.23;100.00;101452.97;5032178;28;19925;-49
2021/11/07 02:38:36;;;;;;;;;;;;;;;9.25;100.00;101445.84;5030160;28;20400;-55
2021/11/07 02:41:04;;;;;;;;;;;;;;;9.33;100.00;101455.97;5032359;28;20340;-51
2021/11/07 02:43:31;;;;;;;;;;;;;;;9.32;100.00;101441.13;5033782;28;19925;-46
2021/11/07 02:45:57;;;;;;;;;;;;;;;9.35;100.00;101430.47;5033323;28;20019;-46
2021/11/07 02:48:24;;;;;;;;;;;;;;;9.32;100.00;101442.94;5033515;28;19995;-46
2021/11/07 02:50:51;;;;;;;;;;;;;;;9.33;100.00;101442.00;5033286;28;19956;-49
2021/11/07 02:53:17;;;;;;;;;;;;;;;9.40;100.00;101438.13;5030950;28;19929;-46
2021/11/07 02:55:44;;;;;;;;;;;;;;;9.38;100.00;101430.34;5031068;28;19929;-47
2021/11/07 02:58:11;;;;;;;;;;;;;;;9.42;100.00;101436.25;5031732;28;19925;-43
2021/11/07 03:00:38;;;;;;;;;;;;;;;9.44;100.00;101434.44;5032713;28;20434;-47
2021/11/07 03:03:05;;;;;;;;;;;;;;;9.39;100.00;101437.28;5033398;28;19925;-52
2021/11/07 03:05:32;;;;;;;;;;;;;;;9.43;100.00;101432.72;5033360;28;19976;-51
2021/11/07 03:07:58;;;;;;;;;;;;;;;9.40;100.00;101431.09;5048427;28;19975;-53
2021/11/07 03:10:29;;;;;;;;;;;;;;;9.41;100.00;101432.81;5046679;28;19975;-54
2021/11/07 03:13:07;;;;;;;;;;;;;;;9.44;100.00;101408.16;5028294;28;20331;-53
2021/11/07 03:15:34;;;;;;;;;;;;;;;9.44;100.00;101413.41;5033017;28;19932;-53
2021/11/07 03:18:02;;;;;;;;;;;;;;;9.45;100.00;101402.00;5031987;28;19925;-51
2021/11/07 03:20:29;;;;;;;;;;;;;;;9.43;100.00;101420.44;5032787;28;20372;-53
2021/11/07 03:22:56;;;;;;;;;;;;;;;9.45;100.00;101415.97;5032949;28;19932;-51
2021/11/07 03:25:24;;;;;;;;;;;;;;;9.44;100.00;101411.63;5033001;28;19975;-54
2021/11/07 03:27:51;;;;;;;;;;;;;;;9.46;100.00;101408.94;5032695;28;19979;-48
2021/11/07 03:32:56;;;;;;;;;;;;;;;9.51;100.00;101401.66;5030083;28;19925;-48
2021/11/07 03:35:23;;;;;;;;;;;;;;;9.48;100.00;101399.22;5031677;28;19925;-48
2021/11/07 03:37:56;;;;;;;;;;;;;;;9.48;100.00;101402.66;5048059;28;19976;-53
2021/11/07 03:40:24;;;;;;;;;;;;;;;9.52;100.00;101392.88;5032486;28;20059;-52
2021/11/07 03:42:54;;;;;;;;;;;;;;;9.54;100.00;101388.38;5032798;28;19925;-54
2021/11/07 03:45:21;;;;;;;;;;;;;;;9.59;100.00;101388.16;5032624;28;19925;-53
2021/11/07 03:47:48;;;;;;;;;;;;;;;9.60;100.00;101384.59;5032577;28;20047;-52
2021/11/07 03:50:15;;;;;;;;;;;;;;;9.57;100.00;101388.22;5032559;28;19925;-53
2021/11/07 03:52:41;;;;;;;;;;;;;;;9.61;100.00;101374.00;5031364;28;19956;-52
2021/11/07 03:55:08;;;;;;;;;;;;;;;9.54;100.00;101367.38;5033062;28;19975;-53
2021/11/07 03:57:34;;;;;;;;;;;;;;;9.62;100.00;101366.97;5032854;28;20043;-53
2021/11/07 04:00:02;;;;;;;;;;;;;;;9.65;100.00;101372.06;5032735;28;19957;-52
2021/11/07 04:02:28;;;;;;;;;;;;;;;9.66;100.00;101375.56;5029995;28;19926;-53
2021/11/07 04:04:55;;;;;;;;;;;;;;;9.63;100.00;101361.63;5029766;28;19929;-51
2021/11/07 04:07:22;;;;;;;;;;;;;;;9.66;100.00;101386.06;5032105;28;20448;-50
2021/11/07 04:09:48;;;;;;;;;;;;;;;9.67;100.00;101406.13;5032459;28;19936;-49
2021/11/07 04:12:15;;;;;;;;;;;;;;;9.67;100.00;101398.22;5032484;28;19975;-50
2021/11/07 04:14:43;;;;;;;;;;;;;;;9.63;100.00;101382.66;5032422;28;19925;-51
2021/11/07 04:17:10;;;;;;;;;;;;;;;9.57;100.00;101382.97;5027601;28;19925;-50
2021/11/07 04:19:37;;;;;;;;;;;;;;;9.58;100.00;101389.06;5028572;28;19929;-45
2021/11/07 04:22:06;;;;;;;;;;;;;;;9.54;100.00;101379.66;5031765;28;20032;-47
2021/11/07 04:24:33;;;;;;;;;;;;;;;9.53;100.00;101378.81;5031794;28;19926;-49
2021/11/07 04:27:00;;;;;;;;;;;;;;;9.53;100.00;101373.56;5027496;28;19925;-44
2021/11/07 04:29:27;;;;;;;;;;;;;;;9.50;100.00;101380.75;5045427;28;19925;-45
2021/11/07 04:31:54;;;;;;;;;;;;;;;9.53;100.00;101375.31;5032362;28;20357;-50
2021/11/07 04:34:21;;;;;;;;;;;;;;;9.53;100.00;101373.56;5035753;28;19925;-46
2021/11/07 04:36:48;;;;;;;;;;;;;;;9.47;100.00;101366.00;5035728;28;19936;-47
2021/11/07 04:39:15;;;;;;;;;;;;;;;9.55;100.00;101371.69;5036110;28;20307;-49
2021/11/07 04:41:41;;;;;;;;;;;;;;;9.53;100.00;101375.31;5035937;28;20287;-47
2021/11/07 04:44:08;;;;;;;;;;;;;;;9.53;100.00;101378.81;5036126;28;19932;-50
2021/11/07 04:46:36;;;;;;;;;;;;;;;9.47;100.00;101385.25;5035847;28;19925;-45
2021/11/07 04:49:02;;;;;;;;;;;;;;;9.48;100.00;101375.56;5051034;28;19925;-48
2021/11/07 04:51:29;;;;;;;;;;;;;;;9.49;100.00;101377.28;5032785;28;19929;-47
2021/11/07 04:53:57;;;;;;;;;;;;;;;9.48;100.00;101375.56;5034037;28;20418;-46
2021/11/07 04:56:24;;;;;;;;;;;;;;;9.46;100.00;101374.78;5034587;28;19925;-46
2021/11/07 04:58:51;;;;;;;;;;;;;;;9.47;100.00;101373.88;5035608;28;19987;-52
2021/11/07 05:01:18;;;;;;;;;;;;;;;9.48;100.00;101362.44;5034437;28;19941;-52
2021/11/07 05:03:44;;;;;;;;;;;;;;;9.48;100.00;101388.72;5050815;28;20407;-52
2021/11/07 05:06:11;;;;;;;;;;;;;;;9.41;100.00;101367.16;5035483;28;19960;-52
2021/11/07 05:08:37;;;;;;;;;;;;;;;9.42;100.00;101371.50;5035526;28;19952;-48
2021/11/07 05:11:04;;;;;;;;;;;;;;;9.43;100.00;101375.81;5035443;28;20407;-53
2021/11/07 05:13:31;;;;;;;;;;;;;;;9.44;100.00;101367.00;5035432;28;19933;-45
2021/11/07 05:15:58;;;;;;;;;;;;;;;9.38;100.00;101383.09;5034021;28;20373;-45
2021/11/07 05:18:25;;;;;;;;;;;;;;;9.44;100.00;101382.75;5034985;28;19932;-51
2021/11/07 05:20:52;;;;;;;;;;;;;;;9.46;100.00;101380.03;5034971;28;20396;-49
2021/11/07 05:23:18;;;;;;;;;;;;;;;9.49;100.00;101382.53;5035437;28;19990;-53
2021/11/07 05:25:45;;;;;;;;;;;;;;;9.46;100.00;101377.41;5033789;28;19932;-53
2021/11/07 05:28:12;;;;;;;;;;;;;;;9.46;100.00;101387.91;5032777;28;19929;-53
2021/11/07 05:30:39;;;;;;;;;;;;;;;9.42;100.00;101379.38;5032449;28;19925;-53
2021/11/07 05:33:05;;;;;;;;;;;;;;;9.40;100.00;101375.97;5050345;28;19929;-51
2021/11/07 05:35:32;;;;;;;;;;;;;;;9.42;100.00;101389.00;5034888;28;19933;-50
2021/11/07 05:37:59;;;;;;;;;;;;;;;9.39;100.00;101389.19;5034839;28;20372;-54
2021/11/07 05:40:26;;;;;;;;;;;;;;;9.39;100.00;101391.81;5034809;28;20392;-50
2021/11/07 05:42:53;;;;;;;;;;;;;;;9.36;100.00;101373.59;5034738;28;19972;-52
2021/11/07 05:45:20;;;;;;;;;;;;;;;9.35;100.00;101379.75;5031012;28;20328;-53
2021/11/07 05:47:48;;;;;;;;;;;;;;;9.34;100.00;101384.16;5029856;28;19948;-53
2021/11/07 05:50:16;;;;;;;;;;;;;;;9.24;100.00;101375.94;5033711;28;19925;-51
2021/11/07 05:52:43;;;;;;;;;;;;;;;9.25;100.00;101380.22;5034669;28;19925;-52
2021/11/07 05:55:11;;;;;;;;;;;;;;;9.18;100.00;101391.97;5049904;28;20345;-52
2021/11/07 05:57:38;;;;;;;;;;;;;;;9.21;100.00;101391.81;5032036;28;19924;-50
2021/11/07 06:00:05;;;;;;;;;;;;;;;9.21;100.00;101399.69;5046777;28;19925;-53
2021/11/07 06:02:32;;;;;;;;;;;;;;;9.22;100.00;101393.50;5034318;28;19925;-54
2021/11/07 06:04:59;;;;;;;;;;;;;;;9.22;100.00;101398.75;5034363;28;19925;-54
2021/11/07 06:07:25;;;;;;;;;;;;;;;9.16;100.00;101387.72;5034450;28;19957;-51
2021/11/07 06:09:52;;;;;;;;;;;;;;;9.11;100.00;101396.69;5032988;28;19925;-53
2021/11/07 06:12:18;;;;;;;;;;;;;;;9.10;100.00;101404.63;5034123;28;20428;-54
2021/11/07 06:14:46;;;;;;;;;;;;;;;9.08;100.00;101398.59;5046417;28;20399;-49
2021/11/07 06:17:13;;;;;;;;;;;;;;;9.10;100.00;101402.00;5046208;28;20412;-53
2021/11/07 06:19:39;;;;;;;;;;;;;;;9.05;100.00;101399.63;5033770;28;19964;-51
2021/11/07 06:22:06;;;;;;;;;;;;;;;9.06;100.00;101409.16;5047247;28;19929;-50
2021/11/07 06:24:33;;;;;;;;;;;;;;;9.00;100.00;101408.63;5031006;28;19955;-47
2021/11/07 06:27:01;;;;;;;;;;;;;;;8.93;100.00;101413.31;5033277;28;19963;-44
2021/11/07 06:29:28;;;;;;;;;;;;;;;8.87;100.00;101418.88;5034093;28;20342;-44
2021/11/07 06:31:55;;;;;;;;;;;;;;;8.84;100.00;101419.03;5033634;28;19925;-43
2021/11/07 06:34:22;;;;;;;;;;;;;;;8.80;100.00;101424.41;5031242;28;19925;-44
2021/11/07 06:36:49;;;;;;;;;;;;;;;8.83;100.00;101420.78;5030642;28;19929;-45
2021/11/07 06:39:16;;;;;;;;;;;;;;;8.74;100.00;101426.47;5031823;28;19925;-46
2021/11/07 06:41:47;;;;;;;;;;;;;;;8.62;100.00;101434.03;5048161;28;20335;-45
2021/11/07 06:44:14;;;;;;;;;;;;;;;8.57;100.00;101432.53;5030618;28;19983;-43
2021/11/07 06:46:41;;;;;;;;;;;;;;;8.51;100.00;101430.19;5031016;28;19929;-43
2021/11/07 06:49:10;;;;;;;;;;;;;;;8.51;100.00;101432.81;5048783;28;19925;-45
2021/11/07 06:51:38;;;;;;;;;;;;;;;8.37;100.00;101430.81;5033517;28;19932;-45
2021/11/07 06:54:05;;;;;;;;;;;;;;;8.35;100.00;101427.44;5048879;28;19929;-44
2021/11/07 06:56:32;;;;;;;;;;;;;;;8.29;100.00;101423.34;5030183;28;19925;-46
2021/11/07 06:58:59;;;;;;;;;;;;;;;8.23;100.00;101434.06;5030461;28;19929;-43
2021/11/07 07:01:27;;;;;;;;;;;;;;;8.22;100.00;101443.72;5032847;28;19925;-45
2021/11/07 07:03:53;;;;;;;;;;;;;;;8.20;100.00;101440.31;5031977;28;19929;-48
2021/11/07 07:06:20;;;;;;;;;;;;;;;8.15;100.00;101444.91;5033297;28;19979;-45
2021/11/07 07:08:52;;;;;;;;;;;;;;;8.09;100.00;101447.81;5033356;28;19956;-46
2021/11/07 07:11:27;;;;;;;;;;;;;;;8.09;100.00;101438.16;5033473;28;20356;-45
2021/11/07 07:14:19;;;;;;;;;;;;;;;7.96;100.00;101442.25;5032082;28;20372;-44
2021/11/07 07:35:02;;;;;;;;;;;;;;;7.98;100.00;101466.63;5033077;28;19995;-46
2021/11/07 07:37:29;;;;;;;;;;;;;;;7.86;100.00;101457.53;5032814;28;19971;-46
2021/11/07 07:39:55;;;;;;;;;;;;;;;7.99;100.00;101454.38;5045774;28;20427;-49
2021/11/07 07:42:22;;;;;;;;;;;;;;;8.09;100.00;101455.69;5029993;28;19932;-46
2021/11/07 07:44:51;;;;;;;;;;;;;;;8.23;100.00;101448.03;5032218;28;20009;-48
2021/11/07 07:47:19;;;;;;;;;;;;;;;8.45;100.00;101452.31;5028466;28;19929;-46
2021/11/07 07:49:50;;;;;;;;;;;;;;;8.49;100.00;101458.28;5046403;28;19926;-44
2021/11/07 07:52:21;;;;;;;;;;;;;;;8.55;100.00;101458.84;5045528;28;20320;-46
2021/11/07 07:54:48;;;;;;;;;;;;;;;8.68;100.00;101455.63;5030193;28;20481;-49
2021/11/07 07:57:14;;;;;;;;;;;;;;;8.91;100.00;101459.78;5048168;28;19933;-46
2021/11/07 07:59:41;;;;;;;;;;;;;;;9.03;100.00;101463.59;5032682;28;20023;-47
2021/11/07 08:02:08;;;;;;;;;;;;;;;9.14;100.00;101458.66;5029427;28;19997;-45
2021/11/07 08:04:34;;;;;;;;;;;;;;;9.17;100.00;101465.53;5045266;28;19925;-48
2021/11/07 08:07:01;;;;;;;;;;;;;;;9.17;100.00;101471.63;5031607;28;19929;-45
2021/11/07 08:09:27;;;;;;;;;;;;;;;9.24;99.42;101467.78;5036220;28;20320;-45
2021/11/07 08:11:54;;;;;;;;;;;;;;;9.54;96.78;101474.19;5036735;28;19925;-47
2021/11/07 08:14:21;;;;;;;;;;;;;;;9.70;97.17;101471.63;5036358;28;20067;-43
2021/11/07 08:16:47;;;;;;;;;;;;;;;9.54;97.73;101471.56;5036330;28;19972;-44
2021/11/07 08:19:15;;;;;;;;;;;;;;;9.49;97.32;101477.06;5036438;28;19979;-45
2021/11/07 08:21:43;;;;;;;;;;;;;;;9.64;96.18;101478.91;5035280;28;19979;-44
2021/11/07 08:24:10;;;;;;;;;;;;;;;9.67;95.85;101487.53;5035523;28;19925;-44
2021/11/07 08:26:40;;;;;;;;;;;;;;;9.67;96.64;101498.03;5033685;28;20277;-45
2021/11/07 08:29:08;;;;;;;;;;;;;;;9.54;96.16;101503.06;5034598;28;20400;-44
2021/11/07 08:31:37;;;;;;;;;;;;;;;9.37;95.44;101510.00;5032715;28;19933;-44
2021/11/07 08:34:05;;;;;;;;;;;;;;;9.19;95.14;101503.03;5032847;28;19925;-46
2021/11/07 08:36:39;;;;;;;;;;;;;;;9.02;96.66;101502.06;5035757;28;19925;-45
2021/11/07 08:39:13;;;;;;;;;;;;;;;8.91;95.11;101497.34;5035501;28;19952;-46
2021/11/07 08:41:50;;;;;;;;;;;;;;;8.89;94.27;101491.34;5049688;28;19925;-45
2021/11/07 09:01:12;;;;;;;;;;;;;;;9.77;96.39;101475.63;5035596;28;19928;-48
2021/11/07 09:03:46;;;;;;;;;;;;;;;9.96;97.01;101471.09;5049859;28;20372;-48
2021/11/07 09:08:40;;;;;;;;;;;;;;;10.24;94.45;101480.19;5035244;28;19971;-48
2021/11/07 09:11:08;;;;;;;;;;;;;;;10.39;92.22;101490.81;5034540;28;19925;-46
2021/11/07 09:13:35;;;;;;;;;;;;;;;10.78;93.50;101490.44;5035487;28;20380;-45
2021/11/07 09:16:02;;;;;;;;;;;;;;;11.00;92.57;101481.31;5035219;28;19925;-46
2021/11/07 09:18:29;;;;;;;;;;;;;;;11.11;88.59;101488.59;5034826;28;19932;-45
2021/11/07 09:21:07;;;;;;;;;;;;;;;11.22;90.57;101490.59;5034152;28;19975;-46
2021/11/07 09:23:52;;;;;;;;;;;;;;;11.35;90.22;101499.50;5033996;28;20399;-47
2021/11/07 09:26:26;;;;;;;;;;;;;;;11.33;87.41;101499.59;5032204;28;19929;-47
2021/11/07 09:29:04;;;;;;;;;;;;;;;11.40;87.62;101491.31;5049343;28;20300;-46
2021/11/07 09:36:31;;;;;;;;;;;;;;;11.78;87.00;101486.44;5038498;28;19925;-51
2021/11/07 09:41:39;;;;;;;;;;;;;;;12.40;84.68;101480.06;5041762;28;19959;-47
2021/11/07 09:44:08;;;;;;;;;;;;;;;12.52;80.85;101474.00;5034131;28;19948;-46
2021/11/07 09:49:21;;;;;;;;;;;;;;;12.55;78.28;101495.88;5048704;28;20429;-47
2021/11/07 09:51:55;;;;;;;;;;;;;;;12.55;78.01;101491.44;5048825;28;19951;-46
2021/11/07 09:54:23;;;;;;;;;;;;;;;12.50;79.35;101482.97;5042441;28;19958;-45
2021/11/07 09:56:52;;;;;;;;;;;;;;;12.79;79.28;101480.28;5050194;28;20336;-45
2021/11/07 09:59:19;;;;;;;;;;;;;;;12.63;78.31;101473.31;5041352;28;19925;-45
2021/11/07 10:01:46;;;;;;;;;;;;;;;12.15;80.17;101472.84;5048673;28;19926;-44
2021/11/07 10:04:13;;;;;;;;;;;;;;;11.97;80.56;101473.03;5033736;28;19932;-45
2021/11/07 10:06:46;;;;;;;;;;;;;;;12.09;80.70;101475.84;5048518;28;20008;-56
2021/11/07 10:09:13;;;;;;;;;;;;;;;12.11;80.49;101484.53;5040460;28;19932;-55
2021/11/07 10:11:59;;;;;;;;;;;;;;;11.90;81.43;101490.13;5049052;28;19956;-48
2021/11/07 10:14:28;;;;;;;;;;;;;;;11.91;82.80;101483.91;5034630;28;19932;-48
2021/11/07 10:16:55;;;;;;;;;;;;;;;12.25;78.44;101476.59;5031904;28;19980;-50
2021/11/07 10:21:57;;;;;;;;;;;;;;;13.32;76.09;101473.25;5040604;28;19932;-56
2021/11/07 10:24:29;;;;;;;;;;;;;;;13.51;73.01;101479.97;5061364;28;19972;-54
2021/11/07 10:27:02;;;;;;;;;;;;;;;13.84;74.63;101457.50;5040317;28;20360;-56
2021/11/07 10:29:35;;;;;;;;;;;;;;;14.20;73.63;101464.63;5033271;28;20418;-56
2021/11/07 10:32:18;;;;;;;;;;;;;;;14.76;71.63;101465.16;5038609;28;19975;-55
2021/11/07 10:53:23;;;;;;;;;;;;;;;14.94;67.32;101453.19;5041153;28;19924;-46
2021/11/07 10:55:51;;;;;;;;;;;;;;;14.67;67.26;101456.06;5045733;28;20030;-55
2021/11/07 10:58:28;;;;;;;;;;;;;;;14.78;65.43;101455.28;5039371;28;19983;-46
2021/11/07 11:00:55;;;;;;;;;;;;;;;14.61;67.27;101449.38;5034914;28;19929;-46
2021/11/07 11:03:23;;;;;;;;;;;;;;;14.92;65.79;101449.81;5048372;28;19929;-46
2021/11/07 11:05:53;;;;;;;;;;;;;;;14.99;66.43;101444.91;5041081;28;20287;-47
2021/11/07 11:08:25;;;;;;;;;;;;;;;14.65;65.43;101444.75;5041961;28;19958;-54
2021/11/07 11:11:09;;;;;;;;;;;;;;;14.68;66.13;101448.03;5047564;28;19933;-51
2021/11/07 11:13:41;;;;;;;;;;;;;;;14.64;65.52;101437.75;5044018;28;19971;-50
2021/11/07 11:24:28;;;;;;;;;;;;;;;14.05;65.47;101423.41;5033232;28;19933;-55
2021/11/07 11:27:03;;;;;;;;;;;;;;;14.25;65.88;101419.34;5033943;28;19925;-53
2021/11/07 11:35:06;;;;;;;;;;;;;;;14.36;66.48;101416.75;5037141;28;20379;-47
2021/11/07 11:40:36;;;;;;;;;;;;;;;14.28;65.06;101418.28;5037630;28;20658;-49
2021/11/07 11:43:09;;;;;;;;;;;;;;;14.24;64.35;101416.81;5055503;28;19930;-48
2021/11/07 11:45:39;;;;;;;;;;;;;;;14.08;64.21;101427.63;5061776;28;19925;-52
2021/11/07 11:56:37;;;;;;;;;;;;;;;13.44;65.79;101439.06;5038937;28;19929;-47
2021/11/07 12:02:36;;;;;;;;;;;;;;;13.15;65.27;101439.19;5057133;28;20028;-54
2021/11/07 12:05:22;;;;;;;;;;;;;;;13.23;66.16;101449.25;5039450;28;19948;-48
2021/11/07 12:11:16;;;;;;;;;;;;;;;12.54;67.24;101473.06;5035514;28;19932;-46
2021/11/07 12:13:48;;;;;;;;;;;;;;;12.25;71.56;101466.03;5039554;28;19952;-49
2021/11/07 12:16:27;;;;;;;;;;;;;;;11.93;74.42;101468.84;5039257;28;20376;-50
2021/11/07 12:19:04;;;;;;;;;;;;;;;11.91;74.38;101468.09;5036929;28;20376;-47
2021/11/07 12:21:50;;;;;;;;;;;;;;;11.92;74.65;101477.69;5052058;28;20304;-47
2021/11/07 12:24:17;;;;;;;;;;;;;;;11.84;74.30;101470.25;5039298;28;20021;-47
2021/11/07 12:26:44;;;;;;;;;;;;;;;11.76;76.62;101476.94;5054299;28;19933;-44
2021/11/07 12:29:11;;;;;;;;;;;;;;;11.56;77.37;101470.22;5037176;28;19929;-52
2021/11/07 12:31:56;;;;;;;;;;;;;;;11.67;77.41;101457.25;5035205;28;20012;-49
2021/11/07 12:34:24;;;;;;;;;;;;;;;11.56;77.21;101450.00;5039262;28;19932;-45
2021/11/07 12:42:24;;;;;;;;;;;;;;;11.50;77.74;101458.25;5052200;28;19929;-51
2021/11/07 12:44:53;;;;;;;;;;;;;;;11.41;77.20;101454.38;5038846;28;19929;-53
2021/11/07 12:47:25;;;;;;;;;;;;;;;11.82;77.56;101452.81;5037732;28;19928;-52
2021/11/07 12:49:58;;;;;;;;;;;;;;;11.81;78.83;101448.50;5039063;28;19925;-54
2021/11/07 12:52:24;;;;;;;;;;;;;;;11.79;77.60;101443.34;5038932;28;20376;-52
2021/11/07 12:54:51;;;;;;;;;;;;;;;11.74;77.18;101442.78;5034760;28;19925;-53
2021/11/07 12:57:19;;;;;;;;;;;;;;;11.88;77.02;101449.84;5035806;28;19932;-54
2021/11/07 12:59:47;;;;;;;;;;;;;;;11.79;76.78;101440.72;5034490;28;19947;-53
2021/11/07 13:02:19;;;;;;;;;;;;;;;11.80;77.77;101444.19;5050922;28;20396;-54
2021/11/07 13:04:49;;;;;;;;;;;;;;;11.78;77.10;101435.50;5034230;28;19956;-54
2021/11/07 13:07:24;;;;;;;;;;;;;;;11.58;78.46;101442.84;5032892;28;19929;-50
2021/11/07 13:09:57;;;;;;;;;;;;;;;11.57;78.50;101458.75;5033114;28;20350;-49
2021/11/07 13:12:27;;;;;;;;;;;;;;;11.47;78.21;101454.00;5035533;28;19933;-45
2021/11/07 13:15:50;;;;;;;;;;;;;;;11.33;79.09;101457.47;5050533;28;19925;-54
2021/11/07 13:25:58;;;;;;;;;;;;;;;11.31;80.15;101472.50;5034381;28;19936;-53
2021/11/07 13:31:05;;;;;;;;;;;;;;;11.14;78.30;101467.38;5035218;28;19943;-54
2021/11/07 13:33:33;;;;;;;;;;;;;;;11.27;78.70;101463.06;5033399;28;19926;-54
2021/11/07 13:36:00;;;;;;;;;;;;;;;11.30;79.20;101462.06;5031921;28;20400;-53
2021/11/07 13:38:37;;;;;;;;;;;;;;;11.30;78.99;101468.19;5033921;28;19932;-54
2021/11/07 13:41:13;;;;;;;;;;;;;;;11.23;79.74;101468.63;5034940;28;20376;-54
2021/11/07 13:43:40;;;;;;;;;;;;;;;11.23;80.00;101465.97;5034746;28;19929;-48
2021/11/07 13:46:06;;;;;;;;;;;;;;;11.09;81.06;101465.00;5034787;28;19925;-53
2021/11/07 13:48:35;;;;;;;;;;;;;;;11.01;81.75;101464.59;5033560;28;19928;-49
2021/11/07 13:51:02;;;;;;;;;;;;;;;11.05;83.55;101467.91;5031870;28;20410;-46
2021/11/07 13:53:33;;;;;;;;;;;;;;;11.09;83.48;101469.41;5047180;28;20037;-46
2021/11/07 13:56:02;;;;;;;;;;;;;;;10.94;85.13;101461.44;5033342;28;20379;-46
2021/11/07 13:58:29;;;;;;;;;;;;;;;10.94;86.01;101471.97;5031516;28;20437;-47
2021/11/07 14:00:58;;;;;;;;;;;;;;;10.92;86.28;101473.00;5048033;28;19932;-51
2021/11/07 14:03:24;;;;;;;;;;;;;;;10.92;88.43;101476.50;5033286;28;19980;-48
2021/11/07 14:06:10;;;;;;;;;;;;;;;10.65;90.16;101479.72;5030457;28;19929;-49
2021/11/07 14:08:45;;;;;;;;;;;;;;;10.39;87.21;101498.69;5031690;28;19925;-48
2021/11/07 14:11:12;;;;;;;;;;;;;;;9.75;84.72;101499.38;5034321;28;19926;-46
2021/11/07 14:13:44;;;;;;;;;;;;;;;9.26;84.88;101468.53;5034723;28;19925;-50
2021/11/07 14:16:13;;;;;;;;;;;;;;;9.23;86.10;101479.22;5030247;28;19929;-46
2021/11/07 14:18:40;;;;;;;;;;;;;;;9.20;87.16;101463.59;5032592;28;19951;-48
2021/11/07 14:21:07;;;;;;;;;;;;;;;9.11;88.06;101461.44;5065924;28;19936;-50
2021/11/07 14:26:12;;;;;;;;;;;;;;;9.12;91.13;101484.09;5053865;28;19970;-43
2021/11/07 14:28:51;;;;;;;;;;;;;;;9.32;91.10;101488.38;5056920;28;19931;-46
2021/11/07 14:31:23;;;;;;;;;;;;;;;9.12;92.68;101490.22;5054776;28;19929;-45
2021/11/07 14:33:56;;;;;;;;;;;;;;;9.23;93.89;101486.22;5064708;28;20402;-45
2021/11/07 14:36:40;;;;;;;;;;;;;;;9.29;95.27;101505.13;5064789;28;19970;-44
2021/11/07 14:39:17;;;;;;;;;;;;;;;9.19;97.37;101498.66;5054604;28;19978;-44
2021/11/07 14:41:58;;;;;;;;;;;;;;;9.25;97.38;101495.72;5061450;28;19948;-44
2021/11/07 14:44:33;;;;;;;;;;;;;;;9.28;97.66;101503.47;5069812;28;19970;-45
2021/11/07 14:47:14;;;;;;;;;;;;;;;9.21;96.47;101499.41;5072340;28;19997;-46
2021/11/07 14:54:51;;;;;;;;;;;;;;;9.21;97.25;101502.03;5071520;28;20391;-48
2021/11/07 15:03:06;;;;;;;;;;;;;;;9.02;97.12;101502.06;5055014;28;20025;-51
2021/11/07 15:05:17;;;;;;;;;;;;;;;9.14;97.16;101505.91;5060003;28;19925;-47
2021/11/07 15:07:49;;;;;;;;;;;;;;;9.07;97.25;101518.47;5054608;28;20383;-45
2021/11/07 15:13:12;;;;;;;;;;;;;;;9.06;95.61;101511.50;5052825;28;19974;-45
2021/11/07 15:18:41;;;;;;;;;;;;;;;8.92;96.99;101520.03;5075044;28;19945;-45
2021/11/07 15:21:17;;;;;;;;;;;;;;;8.85;95.00;101516.00;5055629;28;20312;-45
2021/11/07 15:23:44;;;;;;;;;;;;;;;8.89;95.00;101520.19;5049066;28;19964;-45
2021/11/07 15:26:33;;;;;;;;;;;;;;;8.87;95.19;101510.69;5052771;28;19929;-44
2021/11/07 15:29:03;;;;;;;;;;;;;;;8.85;95.95;101508.16;5049553;28;19925;-48
2021/11/07 15:31:31;;;;;;;;;;;;;;;8.78;95.65;101518.06;5048556;28;20435;-43
2021/11/07 15:33:58;;;;;;;;;;;;;;;8.76;96.93;101522.53;5052560;28;20372;-46
2021/11/07 15:36:26;;;;;;;;;;;;;;;8.68;97.14;101522.03;5052626;28;20318;-44
2021/11/07 15:39:04;;;;;;;;;;;;;;;8.78;96.90;101514.59;5050982;28;19929;-50
2021/11/07 15:41:31;;;;;;;;;;;;;;;8.70;96.36;101521.97;5034546;28;19974;-46